Terminal Aerodrome Forecast
Issued by NWS

Home | Current Version | Previous Version | Text Only | Print | Product List | Glossary On
Versions: 1 2 3 4 5 6 7 8 9 10 11 12
000
FTAK31 PAJN 261700
TAFAGY
TAF
PAGY 261720Z 2618/2718 04005KT P6SM SCT050 BKN070 OVC100
     FM262100 21008KT P6SM BKN050 OVC070
     FM270300 22010KT P6SM -RA BKN040 OVC060
     FM270800 21010G20KT P6SM -SHRA BKN040 OVC060
      AMD LTD TO CLD VIS AND WIND=

USA.gov is the U.S. government's official web portal to all federal, state and local government web resources and services.